Terminal Aerodrome Forecast
Issued by NWS

Home | Current Version | Previous Version | Text Only | Print | Product List | Glossary On
Versions: 1 2 3 4 5 6 7 8 9 10 11 12 13 14 15 16 17 18 19 20 21 22 23 24 25 26 27 28 29 30 31 32 33 34 35 36
062
FTUS41 KRNK 230539
TAFBCB
TAF
KBCB 230539Z 2306/2406 VRB03KT P6SM OVC022
     FM231100 19005KT 5SM -SHRA BKN012 WS020/21030KT
     FM231800 18007KT 3SM -RA BR OVC007 WS020/20045KT
     FM240100 14010G18KT 5SM -RA BR OVC003=

USA.gov is the U.S. government's official web portal to all federal, state and local government web resources and services.